sensor_id;sensor_type;location;lat;lon;timestamp;P1;durP1;ratioP1;P2;durP2;ratioP2
51034;SDS011;37062;52.546;13.230;2023-11-19T00:00:20;9.77;;;6.45;;
51034;SDS011;37062;52.546;13.230;2023-11-19T00:02:50;8.15;;;6.28;;
51034;SDS011;37062;52.546;13.230;2023-11-19T00:05:18;9.05;;;6.88;;
51034;SDS011;37062;52.546;13.230;2023-11-19T00:07:46;7.55;;;5.97;;
51034;SDS011;37062;52.546;13.230;2023-11-19T00:10:15;13.55;;;6.95;;
51034;SDS011;37062;52.546;13.230;2023-11-19T00:12:46;8.60;;;6.60;;
51034;SDS011;37062;52.546;13.230;2023-11-19T00:15:17;9.07;;;6.25;;
51034;SDS011;37062;52.546;13.230;2023-11-19T00:17:47;8.40;;;6.30;;
51034;SDS011;37062;52.546;13.230;2023-11-19T00:20:16;7.75;;;6.25;;
51034;SDS011;37062;52.546;13.230;2023-11-19T00:22:46;8.93;;;6.78;;
51034;SDS011;37062;52.546;13.230;2023-11-19T00:25:17;11.05;;;6.28;;
51034;SDS011;37062;52.546;13.230;2023-11-19T00:27:46;6.65;;;5.95;;
51034;SDS011;37062;52.546;13.230;2023-11-19T00:30:14;7.25;;;6.43;;
51034;SDS011;37062;52.546;13.230;2023-11-19T00:32:44;8.38;;;6.20;;
51034;SDS011;37062;52.546;13.230;2023-11-19T00:35:13;6.88;;;6.15;;
51034;SDS011;37062;52.546;13.230;2023-11-19T00:37:42;8.20;;;5.90;;
51034;SDS011;37062;52.546;13.230;2023-11-19T00:40:12;8.00;;;5.85;;
51034;SDS011;37062;52.546;13.230;2023-11-19T00:42:43;7.40;;;6.22;;
51034;SDS011;37062;52.546;13.230;2023-11-19T00:45:11;6.55;;;5.28;;
51034;SDS011;37062;52.546;13.230;2023-11-19T00:47:40;8.05;;;5.95;;
51034;SDS011;37062;52.546;13.230;2023-11-19T00:50:10;10.00;;;6.20;;
51034;SDS011;37062;52.546;13.230;2023-11-19T00:52:41;6.55;;;5.47;;
51034;SDS011;37062;52.546;13.230;2023-11-19T00:55:09;6.97;;;5.43;;
51034;SDS011;37062;52.546;13.230;2023-11-19T00:57:39;7.88;;;5.85;;
51034;SDS011;37062;52.546;13.230;2023-11-19T01:00:08;7.40;;;6.13;;
51034;SDS011;37062;52.546;13.230;2023-11-19T01:02:44;7.38;;;5.85;;
51034;SDS011;37062;52.546;13.230;2023-11-19T01:05:14;10.43;;;5.50;;
51034;SDS011;37062;52.546;13.230;2023-11-19T01:07:47;6.55;;;5.63;;
51034;SDS011;37062;52.546;13.230;2023-11-19T01:10:16;6.60;;;5.22;;
51034;SDS011;37062;52.546;13.230;2023-11-19T01:12:45;6.65;;;5.47;;
51034;SDS011;37062;52.546;13.230;2023-11-19T01:15:14;7.15;;;5.72;;
51034;SDS011;37062;52.546;13.230;2023-11-19T01:17:45;8.15;;;5.30;;
51034;SDS011;37062;52.546;13.230;2023-11-19T01:20:17;6.22;;;5.60;;
51034;SDS011;37062;52.546;13.230;2023-11-19T01:22:47;6.93;;;5.22;;
51034;SDS011;37062;52.546;13.230;2023-11-19T01:25:16;7.47;;;5.45;;
51034;SDS011;37062;52.546;13.230;2023-11-19T01:27:45;5.53;;;4.93;;
51034;SDS011;37062;52.546;13.230;2023-11-19T01:30:13;6.22;;;4.80;;
51034;SDS011;37062;52.546;13.230;2023-11-19T01:32:42;5.90;;;4.90;;
51034;SDS011;37062;52.546;13.230;2023-11-19T01:35:21;6.57;;;5.07;;
51034;SDS011;37062;52.546;13.230;2023-11-19T01:37:53;5.88;;;4.78;;
51034;SDS011;37062;52.546;13.230;2023-11-19T01:40:22;7.07;;;5.43;;
51034;SDS011;37062;52.546;13.230;2023-11-19T01:42:50;7.18;;;5.25;;
51034;SDS011;37062;52.546;13.230;2023-11-19T01:45:22;5.30;;;4.72;;
51034;SDS011;37062;52.546;13.230;2023-11-19T01:47:57;6.85;;;4.75;;
51034;SDS011;37062;52.546;13.230;2023-11-19T01:50:29;6.53;;;4.88;;
51034;SDS011;37062;52.546;13.230;2023-11-19T01:52:59;7.20;;;5.20;;
51034;SDS011;37062;52.546;13.230;2023-11-19T01:55:28;7.75;;;5.90;;
51034;SDS011;37062;52.546;13.230;2023-11-19T01:57:59;7.00;;;5.03;;
51034;SDS011;37062;52.546;13.230;2023-11-19T02:00:30;6.85;;;5.00;;
51034;SDS011;37062;52.546;13.230;2023-11-19T02:03:00;8.52;;;5.05;;
51034;SDS011;37062;52.546;13.230;2023-11-19T02:05:32;8.15;;;5.07;;
51034;SDS011;37062;52.546;13.230;2023-11-19T02:08:01;7.63;;;4.97;;
51034;SDS011;37062;52.546;13.230;2023-11-19T02:10:30;7.32;;;4.80;;
51034;SDS011;37062;52.546;13.230;2023-11-19T02:13:01;5.72;;;4.72;;
51034;SDS011;37062;52.546;13.230;2023-11-19T02:15:36;6.85;;;4.78;;
51034;SDS011;37062;52.546;13.230;2023-11-19T02:18:20;6.22;;;5.15;;
51034;SDS011;37062;52.546;13.230;2023-11-19T02:20:50;5.88;;;5.00;;
51034;SDS011;37062;52.546;13.230;2023-11-19T02:23:19;6.53;;;5.10;;
51034;SDS011;37062;52.546;13.230;2023-11-19T02:25:52;7.40;;;5.30;;
51034;SDS011;37062;52.546;13.230;2023-11-19T02:28:29;6.03;;;4.68;;
51034;SDS011;37062;52.546;13.230;2023-11-19T02:30:57;6.40;;;4.78;;
51034;SDS011;37062;52.546;13.230;2023-11-19T02:33:26;5.30;;;4.40;;
51034;SDS011;37062;52.546;13.230;2023-11-19T02:35:54;5.88;;;4.40;;
51034;SDS011;37062;52.546;13.230;2023-11-19T02:38:22;4.72;;;4.22;;
51034;SDS011;37062;52.546;13.230;2023-11-19T02:40:51;6.03;;;4.60;;
51034;SDS011;37062;52.546;13.230;2023-11-19T02:43:19;6.80;;;4.45;;
51034;SDS011;37062;52.546;13.230;2023-11-19T02:45:48;5.20;;;4.15;;
51034;SDS011;37062;52.546;13.230;2023-11-19T02:48:17;5.60;;;4.53;;
51034;SDS011;37062;52.546;13.230;2023-11-19T02:50:45;4.95;;;4.10;;
51034;SDS011;37062;52.546;13.230;2023-11-19T02:53:14;4.47;;;3.80;;
51034;SDS011;37062;52.546;13.230;2023-11-19T02:55:43;4.32;;;3.90;;
51034;SDS011;37062;52.546;13.230;2023-11-19T02:58:16;4.18;;;3.78;;
51034;SDS011;37062;52.546;13.230;2023-11-19T03:00:51;5.07;;;4.05;;
51034;SDS011;37062;52.546;13.230;2023-11-19T03:03:24;5.18;;;3.92;;
51034;SDS011;37062;52.546;13.230;2023-11-19T03:05:57;5.07;;;4.13;;
51034;SDS011;37062;52.546;13.230;2023-11-19T03:08:25;5.30;;;4.03;;
51034;SDS011;37062;52.546;13.230;2023-11-19T03:10:54;4.97;;;4.07;;
51034;SDS011;37062;52.546;13.230;2023-11-19T03:13:22;5.55;;;4.00;;
51034;SDS011;37062;52.546;13.230;2023-11-19T03:15:52;5.13;;;3.88;;
51034;SDS011;37062;52.546;13.230;2023-11-19T03:18:22;4.55;;;3.60;;
51034;SDS011;37062;52.546;13.230;2023-11-19T03:20:50;4.53;;;4.00;;
51034;SDS011;37062;52.546;13.230;2023-11-19T03:23:18;8.02;;;3.72;;
51034;SDS011;37062;52.546;13.230;2023-11-19T03:25:47;4.85;;;3.60;;
51034;SDS011;37062;52.546;13.230;2023-11-19T03:28:15;6.03;;;4.07;;
51034;SDS011;37062;52.546;13.230;2023-11-19T03:30:43;5.05;;;4.00;;
51034;SDS011;37062;52.546;13.230;2023-11-19T03:33:13;6.32;;;4.60;;
51034;SDS011;37062;52.546;13.230;2023-11-19T03:35:42;5.78;;;4.40;;
51034;SDS011;37062;52.546;13.230;2023-11-19T03:38:10;5.70;;;4.25;;
51034;SDS011;37062;52.546;13.230;2023-11-19T03:40:38;4.93;;;4.15;;
51034;SDS011;37062;52.546;13.230;2023-11-19T03:43:07;5.68;;;4.20;;
51034;SDS011;37062;52.546;13.230;2023-11-19T03:45:36;6.30;;;4.63;;
51034;SDS011;37062;52.546;13.230;2023-11-19T03:48:06;7.50;;;4.50;;
51034;SDS011;37062;52.546;13.230;2023-11-19T03:50:36;6.93;;;4.72;;
51034;SDS011;37062;52.546;13.230;2023-11-19T03:53:06;7.05;;;4.93;;
51034;SDS011;37062;52.546;13.230;2023-11-19T03:55:34;8.95;;;4.22;;
51034;SDS011;37062;52.546;13.230;2023-11-19T03:58:03;5.85;;;4.68;;
51034;SDS011;37062;52.546;13.230;2023-11-19T04:00:31;5.40;;;4.35;;
51034;SDS011;37062;52.546;13.230;2023-11-19T04:03:00;6.60;;;5.05;;
51034;SDS011;37062;52.546;13.230;2023-11-19T04:05:29;6.70;;;4.53;;
51034;SDS011;37062;52.546;13.230;2023-11-19T04:07:58;6.50;;;4.97;;
51034;SDS011;37062;52.546;13.230;2023-11-19T04:10:26;6.25;;;4.75;;
51034;SDS011;37062;52.546;13.230;2023-11-19T04:12:55;5.90;;;4.40;;
51034;SDS011;37062;52.546;13.230;2023-11-19T04:15:24;6.35;;;4.30;;
51034;SDS011;37062;52.546;13.230;2023-11-19T04:17:52;7.80;;;4.55;;
51034;SDS011;37062;52.546;13.230;2023-11-19T04:20:20;6.45;;;4.97;;
51034;SDS011;37062;52.546;13.230;2023-11-19T04:22:49;6.22;;;4.93;;
51034;SDS011;37062;52.546;13.230;2023-11-19T04:25:19;11.60;;;4.57;;
51034;SDS011;37062;52.546;13.230;2023-11-19T04:27:49;5.65;;;4.60;;
51034;SDS011;37062;52.546;13.230;2023-11-19T04:30:18;9.00;;;5.13;;
51034;SDS011;37062;52.546;13.230;2023-11-19T04:32:46;6.35;;;4.50;;
51034;SDS011;37062;52.546;13.230;2023-11-19T04:35:15;6.15;;;5.20;;
51034;SDS011;37062;52.546;13.230;2023-11-19T04:37:45;5.65;;;4.90;;
51034;SDS011;37062;52.546;13.230;2023-11-19T04:40:14;6.72;;;5.50;;
51034;SDS011;37062;52.546;13.230;2023-11-19T04:42:46;6.30;;;4.97;;
51034;SDS011;37062;52.546;13.230;2023-11-19T04:45:14;6.30;;;5.20;;
51034;SDS011;37062;52.546;13.230;2023-11-19T04:47:42;6.25;;;5.05;;
51034;SDS011;37062;52.546;13.230;2023-11-19T04:50:11;7.00;;;5.50;;
51034;SDS011;37062;52.546;13.230;2023-11-19T04:52:39;7.93;;;5.97;;
51034;SDS011;37062;52.546;13.230;2023-11-19T04:55:08;7.45;;;6.25;;
51034;SDS011;37062;52.546;13.230;2023-11-19T04:57:39;7.78;;;5.90;;
51034;SDS011;37062;52.546;13.230;2023-11-19T05:00:09;7.32;;;5.72;;
51034;SDS011;37062;52.546;13.230;2023-11-19T05:02:43;7.78;;;5.60;;
51034;SDS011;37062;52.546;13.230;2023-11-19T05:05:12;8.50;;;5.80;;
51034;SDS011;37062;52.546;13.230;2023-11-19T05:07:40;8.60;;;6.05;;
51034;SDS011;37062;52.546;13.230;2023-11-19T05:10:09;6.18;;;5.38;;
51034;SDS011;37062;52.546;13.230;2023-11-19T05:12:37;6.93;;;5.43;;
51034;SDS011;37062;52.546;13.230;2023-11-19T05:15:10;6.45;;;5.10;;
51034;SDS011;37062;52.546;13.230;2023-11-19T05:17:39;7.18;;;5.35;;
51034;SDS011;37062;52.546;13.230;2023-11-19T05:20:08;7.97;;;5.00;;
51034;SDS011;37062;52.546;13.230;2023-11-19T05:22:40;5.63;;;4.78;;
51034;SDS011;37062;52.546;13.230;2023-11-19T05:25:09;7.22;;;5.15;;
51034;SDS011;37062;52.546;13.230;2023-11-19T05:27:38;6.18;;;5.20;;
51034;SDS011;37062;52.546;13.230;2023-11-19T05:30:06;7.25;;;5.03;;
51034;SDS011;37062;52.546;13.230;2023-11-19T05:32:37;5.57;;;5.05;;
51034;SDS011;37062;52.546;13.230;2023-11-19T05:35:07;6.05;;;4.93;;
51034;SDS011;37062;52.546;13.230;2023-11-19T05:37:35;4.70;;;4.05;;
51034;SDS011;37062;52.546;13.230;2023-11-19T05:40:05;6.25;;;5.20;;
51034;SDS011;37062;52.546;13.230;2023-11-19T05:42:41;5.68;;;4.80;;
51034;SDS011;37062;52.546;13.230;2023-11-19T05:45:11;8.77;;;4.53;;
51034;SDS011;37062;52.546;13.230;2023-11-19T05:47:40;6.47;;;4.68;;
51034;SDS011;37062;52.546;13.230;2023-11-19T05:50:10;6.30;;;5.05;;
51034;SDS011;37062;52.546;13.230;2023-11-19T05:52:38;7.68;;;5.10;;
51034;SDS011;37062;52.546;13.230;2023-11-19T05:55:06;5.80;;;4.97;;
51034;SDS011;37062;52.546;13.230;2023-11-19T05:57:37;6.40;;;4.97;;
51034;SDS011;37062;52.546;13.230;2023-11-19T06:00:09;6.00;;;4.82;;
51034;SDS011;37062;52.546;13.230;2023-11-19T06:02:40;5.85;;;4.63;;
51034;SDS011;37062;52.546;13.230;2023-11-19T06:05:09;6.90;;;5.47;;
51034;SDS011;37062;52.546;13.230;2023-11-19T06:07:38;5.28;;;4.78;;
51034;SDS011;37062;52.546;13.230;2023-11-19T06:10:08;5.88;;;5.00;;
51034;SDS011;37062;52.546;13.230;2023-11-19T06:12:37;5.75;;;4.60;;
51034;SDS011;37062;52.546;13.230;2023-11-19T06:15:08;6.25;;;4.50;;
51034;SDS011;37062;52.546;13.230;2023-11-19T06:17:36;6.53;;;5.25;;
51034;SDS011;37062;52.546;13.230;2023-11-19T06:20:07;5.80;;;5.03;;
51034;SDS011;37062;52.546;13.230;2023-11-19T06:22:38;5.35;;;4.85;;
51034;SDS011;37062;52.546;13.230;2023-11-19T06:25:08;5.60;;;4.72;;
51034;SDS011;37062;52.546;13.230;2023-11-19T06:27:37;6.07;;;4.93;;
51034;SDS011;37062;52.546;13.230;2023-11-19T06:30:06;6.97;;;4.68;;
51034;SDS011;37062;52.546;13.230;2023-11-19T06:32:35;7.28;;;5.00;;
51034;SDS011;37062;52.546;13.230;2023-11-19T06:35:04;6.05;;;5.38;;
51034;SDS011;37062;52.546;13.230;2023-11-19T06:37:34;4.70;;;4.20;;
51034;SDS011;37062;52.546;13.230;2023-11-19T06:40:03;5.07;;;4.38;;
51034;SDS011;37062;52.546;13.230;2023-11-19T06:42:32;4.97;;;4.47;;
51034;SDS011;37062;52.546;13.230;2023-11-19T06:45:00;6.18;;;5.10;;
51034;SDS011;37062;52.546;13.230;2023-11-19T06:47:28;4.95;;;4.45;;
51034;SDS011;37062;52.546;13.230;2023-11-19T06:49:56;5.55;;;4.38;;
51034;SDS011;37062;52.546;13.230;2023-11-19T06:52:25;5.30;;;4.22;;
51034;SDS011;37062;52.546;13.230;2023-11-19T06:54:55;5.47;;;4.55;;
51034;SDS011;37062;52.546;13.230;2023-11-19T06:57:34;4.53;;;3.90;;
51034;SDS011;37062;52.546;13.230;2023-11-19T07:00:02;9.45;;;4.50;;
51034;SDS011;37062;52.546;13.230;2023-11-19T07:02:32;5.97;;;5.30;;
51034;SDS011;37062;52.546;13.230;2023-11-19T07:05:01;5.82;;;4.72;;
51034;SDS011;37062;52.546;13.230;2023-11-19T07:07:30;5.45;;;4.85;;
51034;SDS011;37062;52.546;13.230;2023-11-19T07:10:00;6.13;;;4.68;;
51034;SDS011;37062;52.546;13.230;2023-11-19T07:12:30;6.53;;;4.50;;
51034;SDS011;37062;52.546;13.230;2023-11-19T07:14:59;6.13;;;4.93;;
51034;SDS011;37062;52.546;13.230;2023-11-19T07:17:28;4.75;;;4.10;;
51034;SDS011;37062;52.546;13.230;2023-11-19T07:19:57;6.15;;;4.68;;
51034;SDS011;37062;52.546;13.230;2023-11-19T07:22:26;4.55;;;4.05;;
51034;SDS011;37062;52.546;13.230;2023-11-19T07:24:56;5.35;;;4.20;;
51034;SDS011;37062;52.546;13.230;2023-11-19T07:27:26;4.80;;;4.30;;
51034;SDS011;37062;52.546;13.230;2023-11-19T07:29:54;5.50;;;4.28;;
51034;SDS011;37062;52.546;13.230;2023-11-19T07:32:24;4.25;;;3.85;;
51034;SDS011;37062;52.546;13.230;2023-11-19T07:34:52;4.55;;;4.13;;
51034;SDS011;37062;52.546;13.230;2023-11-19T07:37:22;5.15;;;4.35;;
51034;SDS011;37062;52.546;13.230;2023-11-19T07:39:51;7.03;;;4.28;;
51034;SDS011;37062;52.546;13.230;2023-11-19T07:42:19;4.65;;;4.18;;
51034;SDS011;37062;52.546;13.230;2023-11-19T07:44:49;5.35;;;3.85;;
51034;SDS011;37062;52.546;13.230;2023-11-19T07:47:17;6.43;;;3.83;;
51034;SDS011;37062;52.546;13.230;2023-11-19T07:49:45;6.05;;;4.70;;
51034;SDS011;37062;52.546;13.230;2023-11-19T07:52:13;4.85;;;4.20;;
51034;SDS011;37062;52.546;13.230;2023-11-19T07:54:45;6.53;;;4.32;;
51034;SDS011;37062;52.546;13.230;2023-11-19T07:57:13;4.30;;;3.60;;
51034;SDS011;37062;52.546;13.230;2023-11-19T07:59:41;5.82;;;3.97;;
51034;SDS011;37062;52.546;13.230;2023-11-19T08:02:11;4.32;;;3.53;;
51034;SDS011;37062;52.546;13.230;2023-11-19T08:04:41;5.20;;;4.20;;
51034;SDS011;37062;52.546;13.230;2023-11-19T08:07:12;4.38;;;3.97;;
51034;SDS011;37062;52.546;13.230;2023-11-19T08:09:40;5.90;;;3.65;;
51034;SDS011;37062;52.546;13.230;2023-11-19T08:12:09;4.85;;;3.80;;
51034;SDS011;37062;52.546;13.230;2023-11-19T08:14:37;4.47;;;3.38;;
51034;SDS011;37062;52.546;13.230;2023-11-19T08:17:05;4.03;;;3.20;;
51034;SDS011;37062;52.546;13.230;2023-11-19T08:19:35;4.32;;;3.15;;
51034;SDS011;37062;52.546;13.230;2023-11-19T08:22:03;4.18;;;3.17;;
51034;SDS011;37062;52.546;13.230;2023-11-19T08:24:32;3.22;;;2.75;;
51034;SDS011;37062;52.546;13.230;2023-11-19T08:27:00;3.60;;;3.15;;
51034;SDS011;37062;52.546;13.230;2023-11-19T08:29:29;3.22;;;2.50;;
51034;SDS011;37062;52.546;13.230;2023-11-19T08:31:59;5.00;;;2.85;;
51034;SDS011;37062;52.546;13.230;2023-11-19T08:34:29;4.22;;;2.83;;
51034;SDS011;37062;52.546;13.230;2023-11-19T08:36:58;3.47;;;2.63;;
51034;SDS011;37062;52.546;13.230;2023-11-19T08:39:27;2.92;;;2.63;;
51034;SDS011;37062;52.546;13.230;2023-11-19T08:41:57;2.65;;;2.40;;
51034;SDS011;37062;52.546;13.230;2023-11-19T08:44:25;4.85;;;3.00;;
51034;SDS011;37062;52.546;13.230;2023-11-19T08:46:53;3.03;;;2.67;;
51034;SDS011;37062;52.546;13.230;2023-11-19T08:49:22;5.47;;;2.65;;
51034;SDS011;37062;52.546;13.230;2023-11-19T08:51:50;2.88;;;2.63;;
51034;SDS011;37062;52.546;13.230;2023-11-19T08:54:20;2.65;;;2.45;;
51034;SDS011;37062;52.546;13.230;2023-11-19T08:56:49;2.45;;;2.25;;
51034;SDS011;37062;52.546;13.230;2023-11-19T08:59:18;2.80;;;2.60;;
51034;SDS011;37062;52.546;13.230;2023-11-19T09:01:46;2.92;;;2.42;;
51034;SDS011;37062;52.546;13.230;2023-11-19T09:04:15;2.72;;;2.53;;
51034;SDS011;37062;52.546;13.230;2023-11-19T09:06:43;3.45;;;2.58;;
51034;SDS011;37062;52.546;13.230;2023-11-19T09:09:12;3.42;;;3.13;;
51034;SDS011;37062;52.546;13.230;2023-11-19T09:11:42;3.55;;;2.47;;
51034;SDS011;37062;52.546;13.230;2023-11-19T09:14:10;3.28;;;2.50;;
51034;SDS011;37062;52.546;13.230;2023-11-19T09:16:38;2.53;;;2.33;;
51034;SDS011;37062;52.546;13.230;2023-11-19T09:19:07;4.85;;;2.72;;
51034;SDS011;37062;52.546;13.230;2023-11-19T09:21:35;3.50;;;2.10;;
51034;SDS011;37062;52.546;13.230;2023-11-19T09:24:05;2.53;;;2.33;;
51034;SDS011;37062;52.546;13.230;2023-11-19T09:26:34;7.88;;;2.45;;
51034;SDS011;37062;52.546;13.230;2023-11-19T09:29:07;2.40;;;2.20;;
51034;SDS011;37062;52.546;13.230;2023-11-19T09:31:37;2.42;;;1.98;;
51034;SDS011;37062;52.546;13.230;2023-11-19T09:34:06;2.53;;;2.10;;
51034;SDS011;37062;52.546;13.230;2023-11-19T09:36:34;2.60;;;2.05;;
51034;SDS011;37062;52.546;13.230;2023-11-19T09:39:02;2.35;;;2.15;;
51034;SDS011;37062;52.546;13.230;2023-11-19T09:41:31;3.42;;;2.40;;
51034;SDS011;37062;52.546;13.230;2023-11-19T09:44:01;3.75;;;2.70;;
51034;SDS011;37062;52.546;13.230;2023-11-19T09:46:30;3.30;;;2.70;;
51034;SDS011;37062;52.546;13.230;2023-11-19T09:48:59;3.20;;;2.35;;
51034;SDS011;37062;52.546;13.230;2023-11-19T09:51:30;2.80;;;2.30;;
51034;SDS011;37062;52.546;13.230;2023-11-19T09:53:58;2.92;;;2.60;;
51034;SDS011;37062;52.546;13.230;2023-11-19T09:56:26;4.47;;;3.10;;
51034;SDS011;37062;52.546;13.230;2023-11-19T09:58:57;2.78;;;2.10;;
51034;SDS011;37062;52.546;13.230;2023-11-19T10:01:26;2.78;;;1.95;;
51034;SDS011;37062;52.546;13.230;2023-11-19T10:03:56;2.88;;;2.10;;
51034;SDS011;37062;52.546;13.230;2023-11-19T10:06:25;2.58;;;1.85;;
51034;SDS011;37062;52.546;13.230;2023-11-19T10:08:54;3.92;;;2.55;;
51034;SDS011;37062;52.546;13.230;2023-11-19T10:11:23;2.45;;;2.17;;
51034;SDS011;37062;52.546;13.230;2023-11-19T10:13:52;2.70;;;2.13;;
51034;SDS011;37062;52.546;13.230;2023-11-19T10:16:27;6.28;;;2.25;;
51034;SDS011;37062;52.546;13.230;2023-11-19T10:18:59;4.28;;;1.90;;
51034;SDS011;37062;52.546;13.230;2023-11-19T10:21:28;1.90;;;1.80;;
51034;SDS011;37062;52.546;13.230;2023-11-19T10:23:59;5.47;;;2.10;;
51034;SDS011;37062;52.546;13.230;2023-11-19T10:26:28;2.75;;;1.90;;
51034;SDS011;37062;52.546;13.230;2023-11-19T10:28:56;2.40;;;1.90;;
51034;SDS011;37062;52.546;13.230;2023-11-19T10:31:25;3.45;;;1.90;;
51034;SDS011;37062;52.546;13.230;2023-11-19T10:33:53;3.22;;;1.90;;
51034;SDS011;37062;52.546;13.230;2023-11-19T10:36:24;7.20;;;2.17;;
51034;SDS011;37062;52.546;13.230;2023-11-19T10:39:07;3.95;;;1.45;;
51034;SDS011;37062;52.546;13.230;2023-11-19T10:41:36;7.65;;;1.67;;
51034;SDS011;37062;52.546;13.230;2023-11-19T10:44:05;7.93;;;1.95;;
51034;SDS011;37062;52.546;13.230;2023-11-19T10:46:37;6.72;;;1.88;;
51034;SDS011;37062;52.546;13.230;2023-11-19T10:49:07;6.55;;;2.28;;
51034;SDS011;37062;52.546;13.230;2023-11-19T10:51:37;5.05;;;1.77;;
51034;SDS011;37062;52.546;13.230;2023-11-19T10:54:11;5.60;;;1.77;;
51034;SDS011;37062;52.546;13.230;2023-11-19T10:56:43;9.00;;;1.98;;
51034;SDS011;37062;52.546;13.230;2023-11-19T10:59:17;4.22;;;1.92;;
51034;SDS011;37062;52.546;13.230;2023-11-19T11:01:50;6.57;;;1.95;;
51034;SDS011;37062;52.546;13.230;2023-11-19T11:04:22;10.43;;;2.50;;
51034;SDS011;37062;52.546;13.230;2023-11-19T11:06:54;8.05;;;2.15;;
51034;SDS011;37062;52.546;13.230;2023-11-19T11:09:25;7.47;;;2.13;;
51034;SDS011;37062;52.546;13.230;2023-11-19T11:11:55;5.20;;;2.13;;
51034;SDS011;37062;52.546;13.230;2023-11-19T11:14:24;6.38;;;2.30;;
51034;SDS011;37062;52.546;13.230;2023-11-19T11:16:54;6.20;;;2.03;;
51034;SDS011;37062;52.546;13.230;2023-11-19T11:19:25;8.48;;;2.10;;
51034;SDS011;37062;52.546;13.230;2023-11-19T11:21:55;7.13;;;1.83;;
51034;SDS011;37062;52.546;13.230;2023-11-19T11:24:32;8.50;;;2.03;;
51034;SDS011;37062;52.546;13.230;2023-11-19T11:30:35;9.27;;;2.47;;
51034;SDS011;37062;52.546;13.230;2023-11-19T11:33:20;7.40;;;2.22;;
51034;SDS011;37062;52.546;13.230;2023-11-19T11:36:04;5.65;;;2.10;;
51034;SDS011;37062;52.546;13.230;2023-11-19T11:38:41;9.30;;;2.60;;
51034;SDS011;37062;52.546;13.230;2023-11-19T11:41:17;9.63;;;2.60;;
51034;SDS011;37062;52.546;13.230;2023-11-19T11:43:47;15.75;;;3.10;;
51034;SDS011;37062;52.546;13.230;2023-11-19T11:49:28;14.77;;;3.58;;
51034;SDS011;37062;52.546;13.230;2023-11-19T11:51:58;11.65;;;2.70;;
51034;SDS011;37062;52.546;13.230;2023-11-19T11:54:28;10.27;;;2.63;;
51034;SDS011;37062;52.546;13.230;2023-11-19T11:57:01;9.85;;;2.55;;
51034;SDS011;37062;52.546;13.230;2023-11-19T11:59:45;10.68;;;2.75;;
51034;SDS011;37062;52.546;13.230;2023-11-19T12:02:15;10.07;;;2.95;;
51034;SDS011;37062;52.546;13.230;2023-11-19T12:04:47;10.98;;;2.97;;
51034;SDS011;37062;52.546;13.230;2023-11-19T12:07:18;15.05;;;3.08;;
51034;SDS011;37062;52.546;13.230;2023-11-19T12:09:50;11.05;;;2.53;;
51034;SDS011;37062;52.546;13.230;2023-11-19T12:12:22;18.80;;;3.72;;
51034;SDS011;37062;52.546;13.230;2023-11-19T12:15:04;13.05;;;3.10;;
51034;SDS011;37062;52.546;13.230;2023-11-19T12:17:43;37.83;;;13.05;;
51034;SDS011;37062;52.546;13.230;2023-11-19T12:20:16;44.55;;;15.07;;
51034;SDS011;37062;52.546;13.230;2023-11-19T12:23:00;35.40;;;10.82;;
51034;SDS011;37062;52.546;13.230;2023-11-19T12:25:35;11.85;;;3.92;;
51034;SDS011;37062;52.546;13.230;2023-11-19T12:28:04;17.55;;;3.50;;
51034;SDS011;37062;52.546;13.230;2023-11-19T12:30:32;11.85;;;2.88;;
51034;SDS011;37062;52.546;13.230;2023-11-19T12:33:07;11.32;;;3.15;;
51034;SDS011;37062;52.546;13.230;2023-11-19T12:35:38;11.85;;;3.40;;
51034;SDS011;37062;52.546;13.230;2023-11-19T12:38:07;11.18;;;3.33;;
51034;SDS011;37062;52.546;13.230;2023-11-19T12:40:37;11.93;;;3.10;;
51034;SDS011;37062;52.546;13.230;2023-11-19T12:43:06;15.85;;;4.15;;
51034;SDS011;37062;52.546;13.230;2023-11-19T12:45:34;15.18;;;3.90;;
51034;SDS011;37062;52.546;13.230;2023-11-19T12:48:06;11.98;;;3.55;;
51034;SDS011;37062;52.546;13.230;2023-11-19T12:53:24;14.55;;;3.45;;
51034;SDS011;37062;52.546;13.230;2023-11-19T12:55:54;13.52;;;3.38;;
51034;SDS011;37062;52.546;13.230;2023-11-19T12:58:29;16.60;;;4.30;;
51034;SDS011;37062;52.546;13.230;2023-11-19T13:01:01;12.30;;;2.80;;
51034;SDS011;37062;52.546;13.230;2023-11-19T13:03:30;13.93;;;3.58;;
51034;SDS011;37062;52.546;13.230;2023-11-19T13:06:01;13.00;;;3.25;;
51034;SDS011;37062;52.546;13.230;2023-11-19T13:08:35;14.57;;;3.85;;
51034;SDS011;37062;52.546;13.230;2023-11-19T13:11:07;12.30;;;3.25;;
51034;SDS011;37062;52.546;13.230;2023-11-19T13:16:23;19.60;;;3.53;;
51034;SDS011;37062;52.546;13.230;2023-11-19T13:18:52;16.40;;;3.53;;
51034;SDS011;37062;52.546;13.230;2023-11-19T13:21:21;13.30;;;3.25;;
51034;SDS011;37062;52.546;13.230;2023-11-19T13:23:49;12.55;;;3.67;;
51034;SDS011;37062;52.546;13.230;2023-11-19T13:26:19;11.35;;;2.95;;
51034;SDS011;37062;52.546;13.230;2023-11-19T13:28:47;14.07;;;3.25;;
51034;SDS011;37062;52.546;13.230;2023-11-19T13:31:15;15.35;;;3.40;;
51034;SDS011;37062;52.546;13.230;2023-11-19T13:33:44;13.45;;;3.42;;
51034;SDS011;37062;52.546;13.230;2023-11-19T13:36:13;15.68;;;3.30;;
51034;SDS011;37062;52.546;13.230;2023-11-19T13:38:43;15.35;;;3.40;;
51034;SDS011;37062;52.546;13.230;2023-11-19T13:41:12;9.60;;;3.03;;
51034;SDS011;37062;52.546;13.230;2023-11-19T13:43:42;14.85;;;3.97;;
51034;SDS011;37062;52.546;13.230;2023-11-19T13:46:10;14.20;;;3.28;;
51034;SDS011;37062;52.546;13.230;2023-11-19T13:48:39;13.27;;;3.83;;
51034;SDS011;37062;52.546;13.230;2023-11-19T13:51:07;16.67;;;3.75;;
51034;SDS011;37062;52.546;13.230;2023-11-19T13:53:36;16.48;;;4.13;;
51034;SDS011;37062;52.546;13.230;2023-11-19T13:56:08;16.73;;;4.03;;
51034;SDS011;37062;52.546;13.230;2023-11-19T13:58:36;16.42;;;4.13;;
51034;SDS011;37062;52.546;13.230;2023-11-19T14:01:06;17.33;;;4.18;;
51034;SDS011;37062;52.546;13.230;2023-11-19T14:03:35;12.23;;;3.88;;
51034;SDS011;37062;52.546;13.230;2023-11-19T14:06:03;20.33;;;4.90;;
51034;SDS011;37062;52.546;13.230;2023-11-19T14:08:35;14.45;;;4.05;;
51034;SDS011;37062;52.546;13.230;2023-11-19T14:11:04;11.85;;;4.13;;
51034;SDS011;37062;52.546;13.230;2023-11-19T14:13:33;15.88;;;4.82;;
51034;SDS011;37062;52.546;13.230;2023-11-19T14:16:01;12.88;;;4.03;;
51034;SDS011;37062;52.546;13.230;2023-11-19T14:18:34;17.98;;;3.47;;
51034;SDS011;37062;52.546;13.230;2023-11-19T14:21:02;13.88;;;3.97;;
51034;SDS011;37062;52.546;13.230;2023-11-19T14:23:31;15.52;;;4.35;;
51034;SDS011;37062;52.546;13.230;2023-11-19T14:25:59;20.30;;;4.38;;
51034;SDS011;37062;52.546;13.230;2023-11-19T14:28:27;16.38;;;4.10;;
51034;SDS011;37062;52.546;13.230;2023-11-19T14:30:57;17.58;;;4.60;;
51034;SDS011;37062;52.546;13.230;2023-11-19T14:33:26;13.60;;;3.47;;
51034;SDS011;37062;52.546;13.230;2023-11-19T14:35:56;14.15;;;4.18;;
51034;SDS011;37062;52.546;13.230;2023-11-19T14:38:24;16.17;;;3.60;;
51034;SDS011;37062;52.546;13.230;2023-11-19T14:40:52;21.25;;;4.72;;
51034;SDS011;37062;52.546;13.230;2023-11-19T14:43:21;17.52;;;3.80;;
51034;SDS011;37062;52.546;13.230;2023-11-19T14:45:50;15.48;;;4.07;;
51034;SDS011;37062;52.546;13.230;2023-11-19T14:48:21;19.67;;;3.88;;
51034;SDS011;37062;52.546;13.230;2023-11-19T14:50:50;13.57;;;3.25;;
51034;SDS011;37062;52.546;13.230;2023-11-19T14:53:19;14.18;;;4.07;;
51034;SDS011;37062;52.546;13.230;2023-11-19T14:55:49;18.33;;;3.97;;
51034;SDS011;37062;52.546;13.230;2023-11-19T14:58:17;15.55;;;4.32;;